Time;durP1;ratioP1;P1;durP2;ratioP2;P2;SDS_P1;SDS_P2;PMS_P1;PMS_P2;Temp;Humidity;BMP_temperature;BMP_pressure;BME280_temperature;BME280_humidity;BME280_pressure;Samples;Min_cycle;Max_cycle;Signal;HPM_P1;HPM_P2
2021/12/14 00:01:13;;;;;;;11.02;6.03;;;8.30;99.90;;;;;;5091966;28;20046;-78
2021/12/14 00:03:43;;;;;;;13.40;7.90;;;8.30;99.90;;;;;;5092054;28;20251;-78
2021/12/14 00:06:11;;;;;;;11.05;6.55;;;8.30;99.90;;;;;;5091535;28;20048;-78
2021/12/14 00:08:48;;;;;;;10.75;6.88;;;8.30;99.90;;;;;;5091755;28;20086;-78
2021/12/14 00:11:32;;;;;;;14.13;7.30;;;8.30;99.90;;;;;;5094965;28;20039;-78
2021/12/14 00:16:45;;;;;;;21.88;7.47;;;8.30;99.90;;;;;;5091479;28;20063;-78
2021/12/14 00:19:11;;;;;;;13.63;7.68;;;8.30;99.90;;;;;;5091730;28;20052;-78
2021/12/14 00:21:37;;;;;;;14.13;7.50;;;8.40;99.90;;;;;;5093065;28;20032;-78
2021/12/14 00:24:14;;;;;;;16.92;7.28;;;8.30;99.90;;;;;;5092946;28;20532;-78
2021/12/14 00:26:51;;;;;;;13.90;7.75;;;8.30;99.90;;;;;;5091279;28;20059;-78
2021/12/14 00:29:27;;;;;;;13.02;7.22;;;8.30;99.90;;;;;;5091496;28;20055;-78
2021/12/14 00:31:55;;;;;;;15.25;8.07;;;8.30;99.90;;;;;;5091478;28;20480;-78
2021/12/14 00:34:35;;;;;;;15.82;8.35;;;8.30;99.90;;;;;;5091801;28;20050;-78
2021/12/14 00:37:02;;;;;;;19.00;8.95;;;8.30;99.90;;;;;;5090617;28;20063;-78
2021/12/14 00:39:27;;;;;;;18.50;9.00;;;8.30;99.90;;;;;;5091445;28;20042;-78
2021/12/14 00:41:53;;;;;;;15.80;9.15;;;8.30;99.90;;;;;;5074628;28;20048;-78
2021/12/14 00:44:20;;;;;;;18.60;9.65;;;8.30;99.90;;;;;;5073401;28;20079;-78
2021/12/14 00:46:47;;;;;;;15.98;9.07;;;8.30;99.90;;;;;;5090901;28;20072;-78
2021/12/14 00:49:13;;;;;;;17.92;9.07;;;8.30;99.90;;;;;;5090987;28;20036;-78
2021/12/14 00:51:39;;;;;;;17.58;8.77;;;8.30;99.90;;;;;;5091354;28;20123;-78
2021/12/14 00:54:12;;;;;;;18.00;9.02;;;8.20;99.90;;;;;;5073600;28;20040;-78
2021/12/14 00:56:38;;;;;;;16.55;8.95;;;8.30;99.90;;;;;;5091781;28;20072;-78
2021/12/14 00:59:06;;;;;;;16.77;8.80;;;8.30;99.90;;;;;;5090706;28;20353;-78
2021/12/14 01:01:37;;;;;;;16.23;9.07;;;8.20;99.90;;;;;;5073904;28;20043;-78
2021/12/14 01:04:07;;;;;;;17.23;8.77;;;8.20;99.90;;;;;;5091229;28;20048;-78
2021/12/14 01:06:35;;;;;;;18.02;9.93;;;8.20;99.90;;;;;;5092140;28;20169;-78
2021/12/14 01:09:06;;;;;;;17.27;8.93;;;8.30;99.90;;;;;;5073708;28;20040;-78
2021/12/14 01:11:40;;;;;;;15.38;9.85;;;8.20;99.90;;;;;;5090950;28;20036;-78
2021/12/14 01:14:31;;;;;;;16.40;8.65;;;8.20;99.90;;;;;;5091214;28;20048;-78
2021/12/14 01:17:25;;;;;;;14.25;8.70;;;8.20;99.90;;;;;;5090374;28;20047;-78
2021/12/14 01:19:58;;;;;;;16.10;9.02;;;8.20;99.90;;;;;;5073988;28;20039;-78
2021/12/14 01:25:11;;;;;;;16.33;9.27;;;8.20;99.90;;;;;;5090310;28;20044;-78
2021/12/14 01:27:40;;;;;;;14.70;8.75;;;8.20;99.90;;;;;;5073664;28;20048;-78
2021/12/14 01:30:17;;;;;;;15.93;9.25;;;8.20;99.90;;;;;;5090660;28;20498;-78
2021/12/14 01:32:47;;;;;;;15.40;8.80;;;8.20;99.90;;;;;;5090546;28;20039;-78
2021/12/14 01:35:17;;;;;;;19.02;9.75;;;8.20;99.90;;;;;;5072931;28;20352;-78
2021/12/14 01:37:58;;;;;;;15.95;9.13;;;8.20;99.90;;;;;;5090500;28;20032;-78
2021/12/14 01:40:46;;;;;;;18.70;9.13;;;8.20;99.90;;;;;;5091000;28;20399;-78
2021/12/14 01:43:12;;;;;;;16.48;8.38;;;8.20;99.90;;;;;;5090466;28;20446;-78
2021/12/14 01:45:38;;;;;;;18.70;9.07;;;8.20;99.90;;;;;;5090244;28;20040;-78
2021/12/14 01:48:04;;;;;;;18.42;9.07;;;8.20;99.90;;;;;;5089289;28;20136;-78
2021/12/14 01:50:39;;;;;;;17.38;9.43;;;8.20;99.90;;;;;;5090711;28;20044;-78
2021/12/14 01:53:05;;;;;;;19.05;9.63;;;8.20;99.90;;;;;;5089950;28;20079;-78
2021/12/14 01:55:34;;;;;;;18.40;9.02;;;8.20;99.90;;;;;;5091490;28;20064;-78
2021/12/14 01:58:02;;;;;;;21.25;9.88;;;8.20;99.90;;;;;;5094597;28;20043;-78
2021/12/14 02:00:33;;;;;;;16.90;9.40;;;8.20;99.90;;;;;;5094578;28;20090;-78
2021/12/14 02:03:02;;;;;;;17.80;9.83;;;8.20;99.90;;;;;;5095600;28;20071;-78
2021/12/14 02:05:36;;;;;;;18.10;9.88;;;8.20;99.90;;;;;;5094011;28;20306;-78
2021/12/14 02:08:12;;;;;;;18.83;9.45;;;8.20;99.90;;;;;;5094166;28;20484;-78
2021/12/14 02:10:38;;;;;;;20.02;9.48;;;8.20;99.90;;;;;;5093893;28;20093;-78
2021/12/14 02:13:06;;;;;;;19.65;11.60;;;8.20;99.90;;;;;;5093751;28;20043;-78
2021/12/14 02:15:43;;;;;;;22.50;9.93;;;8.10;99.90;;;;;;5076947;28;20044;-78
2021/12/14 02:18:15;;;;;;;23.17;10.50;;;8.10;99.90;;;;;;5093832;28;20032;-78
2021/12/14 02:20:55;;;;;;;17.75;8.93;;;8.20;99.90;;;;;;5093099;28;20048;-78
2021/12/14 02:23:21;;;;;;;19.80;10.45;;;8.10;99.90;;;;;;5094041;28;20419;-78
2021/12/14 02:25:49;;;;;;;20.48;10.35;;;8.10;99.90;;;;;;5094089;28;20512;-78
2021/12/14 02:28:18;;;;;;;21.25;11.52;;;8.10;99.90;;;;;;5093494;28;20048;-78
2021/12/14 02:30:46;;;;;;;20.40;10.13;;;8.10;99.90;;;;;;5076182;28;20089;-78
2021/12/14 02:33:28;;;;;;;21.48;10.48;;;8.10;99.90;;;;;;5093721;28;20032;-78
2021/12/14 02:35:54;;;;;;;23.63;11.80;;;8.10;99.90;;;;;;5093744;28;20041;-78
2021/12/14 02:38:20;;;;;;;23.35;11.50;;;8.20;99.90;;;;;;5093476;28;20518;-78
2021/12/14 02:40:57;;;;;;;24.88;11.68;;;8.10;99.90;;;;;;5093614;28;20051;-78
2021/12/14 02:43:35;;;;;;;21.27;10.82;;;8.10;99.90;;;;;;5095566;28;20040;-78
2021/12/14 02:46:06;;;;;;;22.77;10.77;;;8.10;99.90;;;;;;5094819;28;20048;-78
2021/12/14 02:48:33;;;;;;;21.15;11.63;;;8.10;99.90;;;;;;5094778;28;20114;-78
2021/12/14 02:51:08;;;;;;;22.77;11.43;;;8.10;99.90;;;;;;5093751;28;20063;-78
2021/12/14 02:53:34;;;;;;;20.65;11.23;;;8.10;99.90;;;;;;5093431;28;20055;-78
2021/12/14 02:55:59;;;;;;;23.35;11.45;;;8.10;99.90;;;;;;5092836;28;20040;-78
2021/12/14 02:58:25;;;;;;;22.08;11.48;;;8.10;99.90;;;;;;5094860;28;20040;-78
2021/12/14 03:00:53;;;;;;;23.65;11.07;;;8.10;99.90;;;;;;5093207;28;20040;-79
2021/12/14 03:03:19;;;;;;;23.48;12.15;;;8.10;99.90;;;;;;5093167;28;20093;-78
2021/12/14 03:05:48;;;;;;;23.00;12.98;;;8.10;99.90;;;;;;5091893;28;20072;-78
2021/12/14 03:08:21;;;;;;;19.27;10.80;;;8.10;99.90;;;;;;5091928;28;20397;-78
2021/12/14 03:10:56;;;;;;;22.75;11.10;;;8.10;99.90;;;;;;5093723;28;20036;-78
2021/12/14 03:13:28;;;;;;;22.92;10.48;;;8.10;99.90;;;;;;5092983;28;20039;-78
2021/12/14 03:15:56;;;;;;;23.27;11.95;;;8.10;99.90;;;;;;5075960;28;20043;-78
2021/12/14 03:18:35;;;;;;;25.95;12.18;;;8.10;99.90;;;;;;5092100;28;20551;-78
2021/12/14 03:21:06;;;;;;;24.75;11.73;;;8.00;99.90;;;;;;5076034;28;20081;-78
2021/12/14 03:23:39;;;;;;;25.73;13.80;;;8.10;99.90;;;;;;5092901;28;20047;-78
2021/12/14 03:26:09;;;;;;;25.23;12.30;;;8.10;99.90;;;;;;5092433;28;20128;-78
2021/12/14 03:28:37;;;;;;;22.63;12.05;;;8.10;99.90;;;;;;5092917;28;20093;-78
2021/12/14 03:31:19;;;;;;;28.52;13.48;;;8.00;99.90;;;;;;5076069;28;20028;-78
2021/12/14 03:33:51;;;;;;;23.70;12.73;;;8.10;99.90;;;;;;5092476;28;20050;-78
2021/12/14 03:36:23;;;;;;;26.30;13.13;;;8.10;99.90;;;;;;5093255;28;20028;-78
2021/12/14 03:39:09;;;;;;;25.33;12.82;;;8.10;99.90;;;;;;5076547;28;20028;-78
2021/12/14 03:41:39;;;;;;;23.95;11.68;;;8.10;99.90;;;;;;5092891;28;20067;-78
2021/12/14 03:44:12;;;;;;;24.70;11.90;;;8.10;99.90;;;;;;5079719;28;20043;-82
2021/12/14 03:46:53;;;;;;;22.17;11.63;;;8.00;99.90;;;;;;5079798;28;20032;-82
2021/12/14 03:49:22;;;;;;;26.13;13.15;;;8.10;99.90;;;;;;5080997;28;20040;-82
2021/12/14 03:51:49;;;;;;;27.90;13.05;;;8.10;99.90;;;;;;5099213;28;20036;-82
2021/12/14 04:01:36;;;;;;;27.90;13.63;;;8.00;99.90;;;;;;5097706;28;20036;-82
2021/12/14 04:04:11;;;;;;;23.52;13.18;;;8.00;99.90;;;;;;5080909;28;20036;-82
2021/12/14 04:06:38;;;;;;;26.17;13.77;;;8.00;99.90;;;;;;5097352;28;20126;-82
2021/12/14 04:09:07;;;;;;;27.02;13.90;;;8.00;99.90;;;;;;5098177;28;20093;-82
2021/12/14 04:11:33;;;;;;;27.88;13.40;;;8.10;99.90;;;;;;5096578;28;20040;-82
2021/12/14 04:13:59;;;;;;;27.63;12.80;;;8.10;99.90;;;;;;5096480;28;20492;-82
2021/12/14 04:16:26;;;;;;;33.65;14.65;;;8.10;99.90;;;;;;5080478;28;20104;-82
2021/12/14 04:18:52;;;;;;;26.23;14.63;;;8.10;99.90;;;;;;5097465;28;20051;-82
2021/12/14 04:21:19;;;;;;;29.17;13.48;;;8.10;99.90;;;;;;5094587;28;20043;-82
2021/12/14 04:23:49;;;;;;;28.38;14.05;;;8.10;99.90;;;;;;5077978;28;20060;-82
2021/12/14 04:26:16;;;;;;;28.88;14.63;;;8.10;99.90;;;;;;5077103;28;20036;-82
2021/12/14 04:28:49;;;;;;;29.55;13.73;;;8.00;99.90;;;;;;5093450;28;20078;-82
2021/12/14 04:32:05;;;;;;;28.08;14.48;;;8.00;99.90;;;;;;5094314;28;20073;-82
2021/12/14 04:34:31;;;;;;;28.77;14.15;;;8.00;99.90;;;;;;5097637;28;20089;-82
2021/12/14 04:36:57;;;;;;;29.77;14.15;;;7.90;99.90;;;;;;5097251;28;20059;-82
2021/12/14 04:53:06;;;;;;;35.97;15.40;;;7.80;99.90;;;;;;5097491;28;20044;-82
2021/12/14 04:55:31;;;;;;;31.40;15.18;;;7.80;99.90;;;;;;5097955;28;20051;-82
2021/12/14 04:57:57;;;;;;;33.63;15.15;;;7.70;99.90;;;;;;5098193;28;20044;-82
2021/12/14 05:00:34;;;;;;;32.25;16.70;;;7.80;99.90;;;;;;5097817;28;20075;-82
2021/12/14 05:03:01;;;;;;;32.45;16.50;;;7.80;99.90;;;;;;5097270;28;20059;-82
2021/12/14 05:05:33;;;;;;;30.92;15.02;;;7.80;99.90;;;;;;5097102;28;20407;-81
2021/12/14 05:10:41;;;;;;;34.97;16.33;;;7.80;99.90;;;;;;5096503;28;20391;-82
2021/12/14 05:13:07;;;;;;;30.98;16.20;;;7.90;99.90;;;;;;5080401;28;20047;-82
2021/12/14 05:15:36;;;;;;;31.27;15.38;;;7.90;99.90;;;;;;5096980;28;20415;-82
2021/12/14 05:18:07;;;;;;;29.30;15.52;;;7.90;99.90;;;;;;5096911;28;20067;-82
2021/12/14 05:20:33;;;;;;;33.42;14.95;;;7.90;99.90;;;;;;5096892;28;20044;-82
2021/12/14 05:23:01;;;;;;;36.22;17.10;;;7.90;99.90;;;;;;5097583;28;20483;-82
2021/12/14 05:25:28;;;;;;;35.20;17.08;;;7.90;99.90;;;;;;5079409;28;20036;-82
2021/12/14 05:28:00;;;;;;;32.63;16.08;;;8.00;99.90;;;;;;5095959;28;20051;-80
2021/12/14 05:30:33;;;;;;;;;;;8.00;99.90;;;;;;5096676;28;20043;-79
2021/12/14 05:33:04;;;;;;;29.63;15.93;;;7.90;99.90;;;;;;5094460;28;19915;-81
2021/12/14 05:35:29;;;;;;;29.75;15.48;;;7.90;99.90;;;;;;5077458;28;20037;-81
2021/12/14 05:37:56;;;;;;;33.47;16.67;;;8.00;99.90;;;;;;5093170;28;20046;-83
2021/12/14 05:43:05;;;;;;;34.20;16.23;;;8.00;99.90;;;;;;5097592;28;20104;-82
2021/12/14 05:43:19;;;;;;;33.22;16.67;;;8.00;99.90;;;;;;5082642;28;20058;-82
2021/12/14 05:45:48;;;;;;;33.22;16.52;;;8.00;99.90;;;;;;5080874;28;20048;-82
2021/12/14 05:48:23;;;;;;;37.03;17.17;;;8.00;99.90;;;;;;5095652;28;20075;-83
2021/12/14 05:50:52;;;;;;;32.42;17.45;;;8.00;99.90;;;;;;5094435;28;20040;-82
2021/12/14 05:53:28;;;;;;;34.45;17.33;;;8.00;99.90;;;;;;5079574;28;20082;-83
2021/12/14 05:55:56;;;;;;;35.15;16.63;;;8.00;99.90;;;;;;5078684;28;20088;-83
2021/12/14 05:58:23;;;;;;;37.67;17.08;;;8.00;99.90;;;;;;5090755;28;20067;-80
2021/12/14 06:00:57;;;;;;;31.73;16.35;;;8.00;99.90;;;;;;5090957;28;20047;-80
2021/12/14 06:03:30;;;;;;;37.90;17.92;;;8.00;99.90;;;;;;5090985;28;20523;-79
2021/12/14 06:05:57;;;;;;;35.75;17.98;;;8.00;99.90;;;;;;5073153;28;20055;-80
2021/12/14 06:08:30;;;;;;;37.53;17.83;;;8.00;99.90;;;;;;5090133;28;20043;-79
2021/12/14 06:10:56;;;;;;;37.40;18.67;;;8.00;99.90;;;;;;5090561;28;20062;-80
2021/12/14 06:13:43;;;;;;;36.72;19.77;;;8.00;99.90;;;;;;5090931;28;20032;-80
2021/12/14 06:16:25;;;;;;;38.75;17.60;;;8.00;99.90;;;;;;5090467;28;20047;-79
2021/12/14 06:18:51;;;;;;;41.13;19.48;;;8.00;99.90;;;;;;5090394;28;20054;-79
2021/12/14 06:21:29;;;;;;;38.63;19.80;;;8.00;99.90;;;;;;5090245;28;20036;-79
2021/12/14 06:24:04;;;;;;;39.17;18.60;;;8.00;99.90;;;;;;5090274;28;20434;-79
2021/12/14 06:26:39;;;;;;;48.75;22.20;;;8.00;99.90;;;;;;5090238;28;20070;-80
2021/12/14 06:29:10;;;;;;;45.35;19.30;;;8.00;99.90;;;;;;5090251;28;20101;-79
2021/12/14 06:31:37;;;;;;;40.47;18.77;;;8.00;99.90;;;;;;5075628;28;20044;-80
2021/12/14 06:34:21;;;;;;;41.28;18.88;;;8.00;99.90;;;;;;5095505;28;20043;-83
2021/12/14 06:36:48;;;;;;;38.95;19.08;;;8.00;99.90;;;;;;5080427;28;20044;-83
2021/12/14 06:39:15;;;;;;;38.83;19.48;;;8.00;99.90;;;;;;5097813;28;20062;-83
2021/12/14 06:41:40;;;;;;;42.58;20.33;;;8.00;99.90;;;;;;5097494;28;20591;-83
2021/12/14 06:44:06;;;;;;;43.05;19.42;;;8.00;99.90;;;;;;5083108;28;20044;-83
2021/12/14 06:46:36;;;;;;;41.75;19.40;;;8.00;99.90;;;;;;5096329;28;20044;-83
2021/12/14 06:49:07;;;;;;;47.53;20.83;;;8.00;99.90;;;;;;5100538;28;20396;-83
2021/12/14 06:51:39;;;;;;;42.50;19.83;;;8.00;99.90;;;;;;5081369;28;20036;-83
2021/12/14 06:54:13;;;;;;;43.60;21.92;;;8.00;99.90;;;;;;5100915;28;20122;-83
2021/12/14 06:56:39;;;;;;;42.70;20.52;;;8.10;99.90;;;;;;5084021;28;20044;-84
2021/12/14 06:59:08;;;;;;;45.58;22.73;;;8.00;99.90;;;;;;5101001;28;20062;-83
2021/12/14 07:01:49;;;;;;;44.95;20.38;;;8.00;99.90;;;;;;5083505;28;20051;-84
2021/12/14 07:04:18;;;;;;;43.53;21.80;;;8.00;99.90;;;;;;5096809;28;20488;-83
2021/12/14 07:06:48;;;;;;;43.22;20.88;;;8.00;99.90;;;;;;5093264;28;20474;-84
2021/12/14 07:09:17;;;;;;;68.88;32.75;;;8.00;99.90;;;;;;5076489;28;20036;-84
2021/12/14 07:12:03;;;;;;;42.05;21.10;;;8.00;99.90;;;;;;5093107;28;20032;-84
2021/12/14 07:14:29;;;;;;;48.53;21.27;;;8.00;99.90;;;;;;5076454;28;20028;-85
2021/12/14 07:17:02;;;;;;;44.70;21.10;;;8.00;99.90;;;;;;5075988;28;20090;-84
2021/12/14 07:19:43;;;;;;;43.35;20.52;;;8.10;99.90;;;;;;5093676;28;20055;-84
2021/12/14 07:22:32;;;;;;;43.25;19.92;;;8.00;99.90;;;;;;5076214;28;20080;-84
2021/12/14 07:25:19;;;;;;;45.60;22.27;;;8.00;99.90;;;;;;5076155;28;20040;-84
2021/12/14 07:27:45;;;;;;;44.53;20.45;;;8.00;99.90;;;;;;5076250;28;20044;-84
2021/12/14 07:30:25;;;;;;;46.05;19.25;;;8.00;99.90;;;;;;5093614;28;20130;-82
2021/12/14 07:33:02;;;;;;;46.38;22.02;;;8.00;99.90;;;;;;5094613;28;20101;-82
2021/12/14 07:35:27;;;;;;;52.72;23.35;;;8.00;99.90;;;;;;5095703;28;20089;-82
2021/12/14 07:38:00;;;;;;;43.10;20.98;;;8.10;99.90;;;;;;5094940;28;20047;-82
2021/12/14 07:40:34;;;;;;;43.15;19.88;;;8.00;99.90;;;;;;5094635;28;20040;-82
2021/12/14 07:43:13;;;;;;;45.85;21.80;;;8.00;99.90;;;;;;5094798;28;20523;-82
2021/12/14 07:45:39;;;;;;;46.58;21.25;;;8.10;99.90;;;;;;5097189;28;20416;-82
2021/12/14 07:48:05;;;;;;;43.15;20.75;;;8.00;99.90;;;;;;5094767;28;20044;-82
2021/12/14 07:50:54;;;;;;;45.53;22.23;;;8.10;99.90;;;;;;5113544;28;20032;-82
2021/12/14 07:53:44;;;;;;;49.50;21.20;;;8.00;99.90;;;;;;5114904;28;20062;-82
2021/12/14 07:56:29;;;;;;;48.60;23.98;;;8.10;99.90;;;;;;5091783;28;20080;-78
2021/12/14 07:58:56;;;;;;;43.15;21.70;;;8.10;99.90;;;;;;5098253;28;20032;-84
2021/12/14 08:01:22;;;;;;;45.85;21.95;;;8.00;99.90;;;;;;5100966;28;20523;-85
2021/12/14 08:03:58;;;;;;;46.97;22.15;;;8.00;99.90;;;;;;5107580;28;20040;-85
2021/12/14 08:06:24;;;;;;;49.35;23.17;;;8.10;99.90;;;;;;5105176;28;20036;-84
2021/12/14 08:08:54;;;;;;;46.85;21.42;;;8.20;99.90;;;;;;5093862;28;20043;-84
2021/12/14 08:11:47;;;;;;;44.75;22.20;;;8.10;99.90;;;;;;5105053;28;20043;-84
2021/12/14 08:14:20;;;;;;;47.72;21.95;;;8.10;99.90;;;;;;5100940;28;20092;-80
2021/12/14 08:16:55;;;;;;;49.70;23.73;;;8.10;99.90;;;;;;5102896;28;20032;-83
2021/12/14 08:19:41;;;;;;;49.10;21.58;;;8.10;99.90;;;;;;5103517;28;20039;-81
2021/12/14 08:22:14;;;;;;;42.65;19.80;;;8.10;99.90;;;;;;5099890;28;20096;-85
2021/12/14 08:24:48;;;;;;;39.10;20.63;;;8.10;99.90;;;;;;5095467;28;20051;-84
2021/12/14 08:27:19;;;;;;;45.80;21.48;;;8.10;99.90;;;;;;5112122;28;20126;-84
2021/12/14 08:29:49;;;;;;;48.60;22.30;;;8.20;99.90;;;;;;5105386;28;20062;-84
2021/12/14 08:32:20;;;;;;;46.35;22.48;;;8.20;99.90;;;;;;5083686;28;20115;-85
2021/12/14 08:34:47;;;;;;;43.78;20.27;;;8.20;99.90;;;;;;5095381;28;20696;-82
2021/12/14 08:37:28;;;;;;;39.85;20.50;;;8.20;99.90;;;;;;5102705;28;20040;-82
2021/12/14 08:40:00;;;;;;;42.78;20.40;;;8.20;99.90;;;;;;5091053;28;20036;-85
2021/12/14 08:42:54;;;;;;;41.78;20.90;;;8.30;99.90;;;;;;5092290;28;20050;-84
2021/12/14 08:45:26;;;;;;;40.83;19.50;;;8.30;99.90;;;;;;5107037;28;20047;-85
2021/12/14 08:48:08;;;;;;;42.33;19.35;;;8.40;99.90;;;;;;5111455;28;20122;-80
2021/12/14 08:50:40;;;;;;;;;;;8.40;99.90;;;;;;5095023;28;20047;-84
2021/12/14 08:53:08;;;;;;;37.90;18.77;;;8.40;99.90;;;;;;5092339;28;20379;-83
2021/12/14 08:55:36;;;;;;;44.00;20.48;;;8.40;99.90;;;;;;5094980;28;20052;-84
2021/12/14 08:58:04;;;;;;;42.10;20.38;;;8.40;99.90;;;;;;5108045;28;20044;-85
2021/12/14 09:00:53;;;;;;;40.47;19.13;;;8.40;99.90;;;;;;5081017;28;20039;-85
2021/12/14 09:03:31;;;;;;;37.88;19.40;;;8.40;99.90;;;;;;5108281;28;20035;-83
2021/12/14 09:05:58;;;;;;;43.40;18.10;;;8.50;99.90;;;;;;5104888;28;20043;-82
2021/12/14 09:08:23;;;;;;;38.53;18.60;;;8.50;99.90;;;;;;5080630;28;20032;-82
2021/12/14 09:10:54;;;;;;;39.42;19.15;;;8.50;99.90;;;;;;5098418;28;20050;-83
2021/12/14 09:13:19;;;;;;;45.95;21.90;;;8.50;99.90;;;;;;5099618;28;20036;-82
2021/12/14 09:15:56;;;;;;;34.40;17.90;;;8.50;99.90;;;;;;5097120;28;20036;-81
2021/12/14 09:18:23;;;;;;;35.38;17.73;;;8.50;99.90;;;;;;5096708;28;20574;-83
2021/12/14 09:21:03;;;;;;;39.10;18.05;;;8.40;99.90;;;;;;5119224;28;20039;-82
2021/12/14 09:23:33;;;;;;;36.35;18.25;;;8.50;99.90;;;;;;5096568;28;20047;-83
2021/12/14 09:26:03;;;;;;;35.50;17.77;;;8.50;99.90;;;;;;5113628;28;20036;-83
2021/12/14 09:28:30;;;;;;;36.50;18.08;;;8.60;99.90;;;;;;5112476;28;20115;-83
2021/12/14 09:31:01;;;;;;;36.05;17.30;;;8.60;99.90;;;;;;5114200;28;20040;-83
2021/12/14 09:33:28;;;;;;;36.70;17.70;;;8.60;99.90;;;;;;5095616;28;20046;-83
2021/12/14 09:35:57;;;;;;;35.80;16.02;;;8.60;99.90;;;;;;5111515;28;20431;-83
2021/12/14 09:38:32;;;;;;;39.40;18.10;;;8.60;99.90;;;;;;5113526;28;20039;-83
2021/12/14 09:41:00;;;;;;;38.83;17.63;;;8.60;99.90;;;;;;5113417;28;20066;-83
2021/12/14 09:43:25;;;;;;;37.13;17.90;;;8.60;99.90;;;;;;5114117;28;20042;-83
2021/12/14 09:45:55;;;;;;;38.47;17.13;;;8.60;99.90;;;;;;5112597;28;20036;-83
2021/12/14 09:48:27;;;;;;;37.45;17.13;;;8.60;99.90;;;;;;5113481;28;20123;-83
2021/12/14 09:50:55;;;;;;;34.45;17.52;;;8.60;99.90;;;;;;5111749;28;20035;-83
2021/12/14 09:53:26;;;;;;;35.28;17.20;;;8.60;99.90;;;;;;5113322;28;20566;-82
2021/12/14 09:55:56;;;;;;;37.10;17.77;;;8.60;99.90;;;;;;5094731;28;20119;-81
2021/12/14 09:58:27;;;;;;;36.03;18.30;;;8.60;99.90;;;;;;5114133;28;20075;-81
2021/12/14 10:01:15;;;;;;;35.15;17.13;;;8.70;99.90;;;;;;5114987;28;20491;-80
2021/12/14 10:03:43;;;;;;;39.50;18.25;;;8.60;99.90;;;;;;5115014;28;20540;-80
2021/12/14 10:06:12;;;;;;;32.45;16.67;;;8.70;99.90;;;;;;5113188;28;20039;-80
2021/12/14 10:08:44;;;;;;;39.15;18.15;;;8.70;99.90;;;;;;5112950;28;20402;-80
2021/12/14 10:11:23;;;;;;;40.33;17.27;;;8.70;99.90;;;;;;5113071;28;20047;-80
2021/12/14 10:13:50;;;;;;;30.33;14.93;;;8.70;99.90;;;;;;5095830;28;20088;-80
2021/12/14 10:16:16;;;;;;;32.00;16.70;;;8.70;99.90;;;;;;5097860;28;20043;-80
2021/12/14 10:19:03;;;;;;;39.30;16.85;;;8.80;99.90;;;;;;5099937;28;20043;-80
2021/12/14 10:21:42;;;;;;;34.03;17.67;;;8.80;99.90;;;;;;5103645;28;20042;-80
2021/12/14 10:24:08;;;;;;;36.03;16.80;;;8.80;99.90;;;;;;5120849;28;20050;-80
2021/12/14 10:26:43;;;;;;;37.45;16.92;;;8.80;99.90;;;;;;5118617;28;20043;-80
2021/12/14 10:29:10;;;;;;;32.55;15.63;;;8.80;99.90;;;;;;5118980;28;20389;-80
2021/12/14 10:31:44;;;;;;;38.35;16.52;;;8.80;99.90;;;;;;5116691;28;20035;-80
2021/12/14 10:34:18;;;;;;;46.17;18.30;;;8.80;99.90;;;;;;5116664;28;20075;-80
2021/12/14 10:36:48;;;;;;;35.63;18.40;;;8.80;99.90;;;;;;5118044;28;20431;-80
2021/12/14 10:45:02;;;;;;;48.38;20.17;;;8.70;99.90;;;;;;5116053;28;20492;-81
2021/12/14 10:47:29;;;;;;;40.83;19.45;;;8.70;99.90;;;;;;5115719;28;20044;-80
2021/12/14 10:49:59;;;;;;;41.78;19.58;;;8.70;99.90;;;;;;5099794;28;20160;-81
2021/12/14 10:52:27;;;;;;;44.05;19.33;;;8.60;99.90;;;;;;5117686;28;20036;-80
2021/12/14 10:55:02;;;;;;;44.80;19.55;;;8.60;99.90;;;;;;5115827;28;20368;-80
2021/12/14 10:57:31;;;;;;;42.47;20.10;;;8.60;99.90;;;;;;5118002;28;20502;-80
2021/12/14 10:59:57;;;;;;;36.70;18.30;;;8.60;99.90;;;;;;5115597;28;20044;-80
2021/12/14 11:02:26;;;;;;;37.50;16.73;;;8.60;99.90;;;;;;5117974;28;20044;-80
2021/12/14 11:04:56;;;;;;;38.72;18.55;;;8.60;99.90;;;;;;5117529;28;20047;-80
2021/12/14 11:07:38;;;;;;;44.13;18.20;;;8.60;99.90;;;;;;5116490;28;20431;-80
2021/12/14 11:10:24;;;;;;;39.83;17.47;;;8.60;99.90;;;;;;5115964;28;20039;-80
2021/12/14 11:12:55;;;;;;;39.90;18.67;;;8.50;99.90;;;;;;5101946;28;20681;-80
2021/12/14 11:15:25;;;;;;;42.85;19.42;;;8.50;99.90;;;;;;5120646;28;20051;-80
2021/12/14 11:18:10;;;;;;;42.30;19.65;;;8.60;99.90;;;;;;5102561;28;20051;-80
2021/12/14 11:20:47;;;;;;;37.95;17.10;;;8.60;99.90;;;;;;5116393;28;20040;-80
2021/12/14 11:23:18;;;;;;;46.90;19.38;;;8.60;99.90;;;;;;5116075;28;20040;-80
2021/12/14 11:25:49;;;;;;;40.72;18.33;;;8.70;99.90;;;;;;5116411;28;20050;-80
2021/12/14 11:28:35;;;;;;;41.50;18.95;;;8.60;99.90;;;;;;5113843;28;20075;-80
2021/12/14 11:31:13;;;;;;;41.92;18.17;;;8.70;99.90;;;;;;5103072;28;20047;-80
2021/12/14 11:34:04;;;;;;;34.53;16.73;;;8.70;99.90;;;;;;5120594;28;20051;-80
2021/12/14 11:36:51;;;;;;;42.23;19.57;;;8.70;99.90;;;;;;5117548;28;20047;-80
2021/12/14 11:39:28;;;;;;;43.42;16.83;;;8.70;99.90;;;;;;5115588;28;20044;-79
2021/12/14 11:42:10;;;;;;;30.85;14.73;;;8.80;99.90;;;;;;5115308;28;20051;-81
2021/12/14 11:44:47;;;;;;;34.70;16.45;;;8.80;99.90;;;;;;5100777;28;20057;-80
2021/12/14 11:49:51;;;;;;;27.80;14.73;;;8.80;99.90;;;;;;5114647;28;20052;-80
2021/12/14 11:52:50;;;;;;;32.95;15.57;;;8.80;99.90;;;;;;5115260;28;20089;-79
2021/12/14 11:55:31;;;;;;;31.83;14.90;;;8.80;99.90;;;;;;5114497;28;20040;-79
2021/12/14 11:58:10;;;;;;;27.95;15.07;;;8.80;99.90;;;;;;5114990;28;20560;-79
2021/12/14 12:00:44;;;;;;;28.98;14.15;;;8.90;99.90;;;;;;5099081;28;20123;-80
2021/12/14 12:03:44;;;;;;;27.38;13.65;;;8.90;99.90;;;;;;5098910;28;20040;-80
2021/12/14 12:06:35;;;;;;;27.02;13.35;;;8.90;99.90;;;;;;5114434;28;20407;-80
2021/12/14 12:09:35;;;;;;;21.73;13.18;;;8.90;99.90;;;;;;5097798;28;20043;-80
2021/12/14 12:12:03;;;;;;;29.17;13.73;;;8.90;99.90;;;;;;5116276;28;20058;-80
2021/12/14 12:14:37;;;;;;;28.63;14.45;;;8.90;99.90;;;;;;5116839;28;20070;-80
2021/12/14 12:17:12;;;;;;;26.92;13.95;;;8.90;99.90;;;;;;5113472;28;20043;-80
2021/12/14 12:19:38;;;;;;;26.00;13.63;;;8.90;99.90;;;;;;5099255;28;20046;-80
2021/12/14 12:22:08;;;;;;;26.80;13.35;;;8.90;99.90;;;;;;5115587;28;20036;-79
2021/12/14 12:24:39;;;;;;;26.88;13.48;;;8.90;99.90;;;;;;5097434;28;20402;-78
2021/12/14 12:27:15;;;;;;;31.10;14.17;;;8.90;99.90;;;;;;5120259;28;20446;-80
2021/12/14 12:29:41;;;;;;;25.02;12.63;;;8.90;99.90;;;;;;5119519;28;20039;-80
2021/12/14 12:32:17;;;;;;;27.45;14.00;;;8.90;99.90;;;;;;5118565;28;20043;-80
2021/12/14 12:34:44;;;;;;;26.42;12.93;;;8.90;99.90;;;;;;5116496;28;20487;-81
2021/12/14 12:37:11;;;;;;;24.85;12.88;;;8.90;99.90;;;;;;5116886;28;20126;-80
2021/12/14 12:39:37;;;;;;;26.40;13.90;;;8.90;99.90;;;;;;5116898;28;20438;-81
2021/12/14 12:42:05;;;;;;;26.25;12.73;;;8.90;99.90;;;;;;5097982;28;20043;-80
2021/12/14 12:44:38;;;;;;;24.48;12.40;;;8.90;99.90;;;;;;5118727;28;20046;-80
2021/12/14 12:47:14;;;;;;;27.20;13.50;;;8.90;99.90;;;;;;5115784;28;20044;-80
2021/12/14 12:49:42;;;;;;;25.17;12.75;;;8.90;99.90;;;;;;5113455;28;20040;-80
2021/12/14 12:52:30;;;;;;;25.00;12.88;;;8.90;99.90;;;;;;5116118;28;20039;-80
2021/12/14 12:55:10;;;;;;;25.65;14.18;;;8.90;99.90;;;;;;5098707;28;20380;-80
2021/12/14 12:57:57;;;;;;;33.30;15.27;;;8.90;99.90;;;;;;5112435;28;20044;-80
2021/12/14 13:00:43;;;;;;;29.65;13.88;;;8.90;99.90;;;;;;5096167;28;20475;-80
2021/12/14 13:03:19;;;;;;;31.63;14.85;;;8.90;99.90;;;;;;5112580;28;20072;-79
2021/12/14 13:05:47;;;;;;;30.48;14.27;;;8.90;99.90;;;;;;5111618;28;20066;-82
2021/12/14 13:08:33;;;;;;;28.58;15.05;;;8.90;99.90;;;;;;5113498;28;20044;-81
2021/12/14 13:11:21;;;;;;;31.85;15.43;;;8.90;99.90;;;;;;5112518;28;20043;-81
2021/12/14 13:13:54;;;;;;;31.90;15.43;;;8.90;99.90;;;;;;5111725;28;20503;-80
2021/12/14 13:16:26;;;;;;;37.33;16.77;;;8.90;99.90;;;;;;5112801;28;20042;-80
2021/12/14 13:19:10;;;;;;;33.50;16.63;;;9.00;99.90;;;;;;5112958;28;20402;-80
2021/12/14 13:22:00;;;;;;;31.63;15.63;;;9.00;99.90;;;;;;5097344;28;20047;-80
2021/12/14 13:24:30;;;;;;;35.50;16.60;;;9.00;99.90;;;;;;5112643;28;20047;-80
2021/12/14 13:27:00;;;;;;;33.92;15.82;;;9.00;99.90;;;;;;5112269;28;20052;-81
2021/12/14 13:29:49;;;;;;;35.67;16.67;;;9.00;99.90;;;;;;5112818;28;20043;-80
2021/12/14 13:32:50;;;;;;;34.97;15.82;;;9.00;99.90;;;;;;5112407;28;20031;-79
2021/12/14 13:35:22;;;;;;;32.47;15.35;;;9.00;99.90;;;;;;5014606;28;20100;-80
2021/12/14 13:37:52;;;;;;;37.17;16.45;;;9.00;99.90;;;;;;5095789;28;20126;-81
2021/12/14 13:40:21;;;;;;;34.80;15.57;;;9.00;99.90;;;;;;5112477;28;20123;-80
2021/12/14 13:42:51;;;;;;;40.13;17.05;;;9.00;99.90;;;;;;5104848;28;20036;-80
2021/12/14 13:45:25;;;;;;;35.25;15.32;;;9.00;99.90;;;;;;5091497;28;20050;-80